Time;durP1;ratioP1;P1;durP2;ratioP2;P2;SDS_P1;SDS_P2;PMS_P1;PMS_P2;Temp;Humidity;BMP_temperature;BMP_pressure;BME280_temperature;BME280_humidity;BME280_pressure;Samples;Min_cycle;Max_cycle;Signal;HPM_P1;HPM_P2
2022/02/19 00:00:50;;;;;;;26.35;5.57;;;;;;;;;;5073566;28;20045;-61
2022/02/19 00:03:17;;;;;;;28.77;4.72;;;;;;;;;;5080207;28;20523;-61
2022/02/19 00:05:43;;;;;;;22.75;4.43;;;;;;;;;;5073122;28;20059;-61
2022/02/19 00:08:11;;;;;;;23.58;5.47;;;;;;;;;;5080757;28;20045;-62
2022/02/19 00:10:37;;;;;;;27.98;6.80;;;;;;;;;;5076075;28;20048;-61
2022/02/19 00:13:03;;;;;;;28.73;5.88;;;;;;;;;;5079730;28;20041;-61
2022/02/19 00:15:30;;;;;;;26.48;6.40;;;;;;;;;;5082254;28;20037;-61
2022/02/19 00:17:56;;;;;;;41.40;7.57;;;;;;;;;;5080497;28;20048;-62
2022/02/19 00:20:22;;;;;;;37.22;5.93;;;;;;;;;;5083419;28;20041;-63
2022/02/19 00:22:48;;;;;;;31.30;6.20;;;;;;;;;;5080671;28;20105;-63
2022/02/19 00:25:14;;;;;;;40.75;8.23;;;;;;;;;;5080456;28;20045;-63
2022/02/19 00:27:41;;;;;;;27.98;6.22;;;;;;;;;;5073875;28;20068;-62
2022/02/19 00:30:07;;;;;;;23.88;4.70;;;;;;;;;;5075880;28;20044;-63
2022/02/19 00:32:34;;;;;;;23.75;6.97;;;;;;;;;;5081718;28;20044;-62
2022/02/19 00:35:00;;;;;;;24.30;6.13;;;;;;;;;;5075363;28;20051;-62
2022/02/19 00:37:26;;;;;;;23.92;6.93;;;;;;;;;;5080853;28;20068;-62
2022/02/19 00:39:53;;;;;;;23.95;5.32;;;;;;;;;;5076006;28;20047;-62
2022/02/19 00:42:19;;;;;;;24.55;5.65;;;;;;;;;;5088377;28;20044;-63
2022/02/19 00:44:45;;;;;;;25.85;4.40;;;;;;;;;;5096682;28;20108;-63
2022/02/19 00:47:11;;;;;;;23.55;6.10;;;;;;;;;;5088064;28;20051;-62
2022/02/19 00:49:37;;;;;;;23.45;4.78;;;;;;;;;;5094820;28;20139;-62
2022/02/19 00:52:03;;;;;;;26.30;6.63;;;;;;;;;;5092526;28;20080;-62
2022/02/19 00:54:29;;;;;;;16.73;3.97;;;;;;;;;;5087023;28;20071;-62
2022/02/19 00:56:55;;;;;;;16.77;3.80;;;;;;;;;;5086974;28;20044;-62
2022/02/19 00:59:22;;;;;;;14.70;4.63;;;;;;;;;;5089420;28;20035;-62
2022/02/19 01:01:48;;;;;;;29.05;4.03;;;;;;;;;;5103880;28;20040;-62
2022/02/19 01:04:14;;;;;;;18.70;4.05;;;;;;;;;;5096478;28;20046;-62
2022/02/19 01:06:40;;;;;;;20.58;4.07;;;;;;;;;;5083446;28;20088;-61
2022/02/19 01:09:06;;;;;;;21.10;5.40;;;;;;;;;;5084851;28;20577;-62
2022/02/19 01:11:32;;;;;;;19.80;4.32;;;;;;;;;;5098740;28;20070;-62
2022/02/19 01:13:58;;;;;;;21.25;4.55;;;;;;;;;;5095799;28;20456;-62
2022/02/19 01:16:24;;;;;;;31.42;4.50;;;;;;;;;;5084205;28;20036;-62
2022/02/19 01:18:51;;;;;;;16.05;4.38;;;;;;;;;;5088637;28;20051;-62
2022/02/19 01:21:17;;;;;;;17.02;3.78;;;;;;;;;;5103549;28;20131;-63
2022/02/19 01:23:44;;;;;;;15.38;3.80;;;;;;;;;;5099120;28;20477;-63
2022/02/19 01:26:10;;;;;;;33.60;4.43;;;;;;;;;;5102621;28;20051;-63
2022/02/19 01:28:37;;;;;;;17.40;2.97;;;;;;;;;;5102685;28;20062;-64
2022/02/19 01:31:03;;;;;;;17.15;4.28;;;;;;;;;;5088090;28;20045;-63
2022/02/19 01:33:29;;;;;;;21.65;3.90;;;;;;;;;;5088581;28;20054;-63
2022/02/19 01:35:55;;;;;;;13.98;2.03;;;;;;;;;;5106384;28;20039;-63
2022/02/19 01:38:24;;;;;;;3.83;1.15;;;;;;;;;;5101698;28;20040;-63
2022/02/19 01:40:50;;;;;;;5.25;1.10;;;;;;;;;;5087147;28;20044;-63
2022/02/19 01:43:16;;;;;;;6.90;1.25;;;;;;;;;;5087433;28;20052;-63
2022/02/19 01:45:45;;;;;;;7.35;1.65;;;;;;;;;;5087867;28;20056;-63
2022/02/19 01:48:12;;;;;;;13.65;1.95;;;;;;;;;;5087983;28;20092;-62
2022/02/19 01:50:38;;;;;;;12.65;2.72;;;;;;;;;;5106348;28;20052;-62
2022/02/19 01:53:04;;;;;;;7.03;2.22;;;;;;;;;;5102580;28;20047;-62
2022/02/19 01:55:30;;;;;;;15.45;2.78;;;;;;;;;;5107542;28;20046;-63
2022/02/19 01:57:57;;;;;;;16.95;2.70;;;;;;;;;;5107796;28;20032;-63
2022/02/19 02:00:23;;;;;;;16.38;3.80;;;;;;;;;;5088005;28;20080;-62
2022/02/19 02:02:49;;;;;;;20.38;3.75;;;;;;;;;;5085766;28;20051;-62
2022/02/19 02:05:16;;;;;;;11.55;2.53;;;;;;;;;;5105726;28;20071;-62
2022/02/19 02:07:42;;;;;;;17.73;2.13;;;;;;;;;;5102852;28;20576;-63
2022/02/19 02:10:08;;;;;;;13.15;3.75;;;;;;;;;;5092383;28;20069;-62
2022/02/19 02:12:34;;;;;;;17.60;2.47;;;;;;;;;;5096048;28;20405;-62
2022/02/19 02:15:01;;;;;;;15.43;3.65;;;;;;;;;;5129540;27;20083;-62
2022/02/19 02:17:27;;;;;;;15.88;2.38;;;;;;;;;;5106891;28;20040;-62
2022/02/19 02:19:53;;;;;;;21.48;3.33;;;;;;;;;;5105629;28;20126;-62
2022/02/19 02:22:20;;;;;;;20.48;3.78;;;;;;;;;;5087209;28;20060;-62
2022/02/19 02:24:47;;;;;;;10.70;3.13;;;;;;;;;;5099398;28;20097;-62
2022/02/19 02:27:13;;;;;;;9.23;1.85;;;;;;;;;;5103760;28;20067;-62
2022/02/19 02:29:40;;;;;;;5.05;1.10;;;;;;;;;;5097952;28;20064;-61
2022/02/19 02:32:06;;;;;;;2.13;0.75;;;;;;;;;;5092673;28;20461;-62
2022/02/19 02:34:32;;;;;;;4.60;1.05;;;;;;;;;;5093423;28;20087;-63
2022/02/19 02:36:58;;;;;;;2.63;0.90;;;;;;;;;;5084830;28;20053;-63
2022/02/19 02:39:25;;;;;;;2.50;0.73;;;;;;;;;;5094415;28;20044;-63
2022/02/19 02:41:51;;;;;;;0.40;0.40;;;;;;;;;;5106575;28;20047;-63
2022/02/19 02:44:17;;;;;;;1.65;0.55;;;;;;;;;;5099011;28;20040;-63
2022/02/19 02:46:43;;;;;;;4.43;0.60;;;;;;;;;;5089002;28;20047;-63
2022/02/19 02:49:10;;;;;;;3.10;0.90;;;;;;;;;;5106370;28;20081;-63
2022/02/19 02:51:37;;;;;;;1.92;0.88;;;;;;;;;;5102338;28;20067;-62
2022/02/19 02:54:03;;;;;;;5.72;1.08;;;;;;;;;;5087156;28;20101;-62
2022/02/19 02:56:29;;;;;;;4.10;1.15;;;;;;;;;;5087551;28;20040;-62
2022/02/19 02:58:55;;;;;;;6.32;1.90;;;;;;;;;;5106314;28;20036;-61
2022/02/19 03:01:21;;;;;;;6.65;0.90;;;;;;;;;;5097571;28;20055;-61
2022/02/19 03:03:47;;;;;;;3.28;1.17;;;;;;;;;;5085775;28;20036;-61
2022/02/19 03:06:13;;;;;;;9.88;1.42;;;;;;;;;;5087425;28;20056;-62
2022/02/19 03:08:39;;;;;;;3.03;0.70;;;;;;;;;;5106093;28;20063;-63
2022/02/19 03:11:05;;;;;;;2.38;0.60;;;;;;;;;;5105419;28;20079;-62
2022/02/19 03:13:32;;;;;;;1.52;0.73;;;;;;;;;;5085740;28;20040;-63
2022/02/19 03:15:58;;;;;;;4.25;0.80;;;;;;;;;;5097733;28;20086;-62
2022/02/19 03:18:24;;;;;;;7.20;1.83;;;;;;;;;;5085450;28;20052;-62
2022/02/19 03:20:50;;;;;;;4.97;1.15;;;;;;;;;;5083825;28;20057;-63
2022/02/19 03:23:16;;;;;;;6.18;1.33;;;;;;;;;;5104112;28;20529;-63
2022/02/19 03:25:42;;;;;;;10.32;1.30;;;;;;;;;;5104504;28;20126;-63
2022/02/19 03:28:08;;;;;;;9.65;2.08;;;;;;;;;;5087646;28;20044;-62
2022/02/19 03:30:34;;;;;;;10.00;1.40;;;;;;;;;;5102451;28;20116;-62
2022/02/19 03:33:01;;;;;;;6.60;1.17;;;;;;;;;;5089065;28;20045;-62
2022/02/19 03:35:27;;;;;;;7.30;1.70;;;;;;;;;;5085468;28;20045;-62
2022/02/19 03:37:53;;;;;;;9.35;1.95;;;;;;;;;;5095420;28;20075;-62
2022/02/19 03:40:19;;;;;;;10.73;1.45;;;;;;;;;;5085496;28;20104;-62
2022/02/19 03:42:45;;;;;;;5.78;1.20;;;;;;;;;;5081956;28;20043;-62
2022/02/19 03:45:13;;;;;;;6.25;1.00;;;;;;;;;;5082888;28;20044;-61
2022/02/19 03:47:41;;;;;;;10.90;2.30;;;;;;;;;;5099441;28;20111;-61
2022/02/19 03:50:08;;;;;;;6.13;1.38;;;;;;;;;;5090238;28;20052;-62
2022/02/19 03:52:35;;;;;;;5.90;0.80;;;;;;;;;;5084051;28;20133;-62
2022/02/19 03:55:01;;;;;;;5.53;1.15;;;;;;;;;;5097540;28;20094;-62
2022/02/19 03:57:27;;;;;;;8.95;1.13;;;;;;;;;;5103922;28;20048;-62
2022/02/19 03:59:54;;;;;;;9.30;0.88;;;;;;;;;;5087080;28;20040;-62
2022/02/19 04:02:20;;;;;;;3.45;1.00;;;;;;;;;;5084513;28;20469;-62
2022/02/19 04:04:46;;;;;;;5.70;1.45;;;;;;;;;;5102391;28;20043;-62
2022/02/19 04:07:12;;;;;;;4.70;1.30;;;;;;;;;;5089826;28;20108;-62
2022/02/19 04:09:38;;;;;;;9.32;1.42;;;;;;;;;;5100817;28;20050;-62
2022/02/19 04:12:04;;;;;;;15.95;1.92;;;;;;;;;;5104933;28;20039;-61
2022/02/19 04:14:30;;;;;;;10.82;1.77;;;;;;;;;;5093983;28;20036;-62
2022/02/19 04:16:56;;;;;;;8.57;2.30;;;;;;;;;;5104395;28;20044;-62
2022/02/19 04:19:23;;;;;;;9.68;1.95;;;;;;;;;;5091563;28;20040;-61
2022/02/19 04:21:49;;;;;;;2.97;1.25;;;;;;;;;;5102937;28;20408;-62
2022/02/19 04:24:15;;;;;;;4.70;1.35;;;;;;;;;;5104239;28;20055;-62
2022/02/19 04:26:41;;;;;;;7.72;1.88;;;;;;;;;;5103363;28;20084;-62
2022/02/19 04:29:07;;;;;;;7.22;1.77;;;;;;;;;;5093469;28;20389;-62
2022/02/19 04:31:33;;;;;;;6.13;1.23;;;;;;;;;;5084489;28;20052;-63
2022/02/19 04:33:59;;;;;;;4.25;1.27;;;;;;;;;;5087845;28;20453;-63
2022/02/19 04:36:25;;;;;;;2.95;0.90;;;;;;;;;;5097994;28;20044;-62
2022/02/19 04:38:52;;;;;;;3.63;1.05;;;;;;;;;;5097514;28;20053;-62
2022/02/19 04:41:18;;;;;;;6.55;1.65;;;;;;;;;;5104590;28;20072;-62
2022/02/19 04:43:44;;;;;;;9.48;1.77;;;;;;;;;;5098421;28;20044;-62
2022/02/19 04:46:10;;;;;;;7.78;1.58;;;;;;;;;;5084461;28;20258;-62
2022/02/19 04:48:36;;;;;;;9.75;1.80;;;;;;;;;;5088507;28;20057;-62
2022/02/19 04:51:02;;;;;;;10.32;1.83;;;;;;;;;;5083263;28;20512;-62
2022/02/19 04:53:28;;;;;;;7.22;1.88;;;;;;;;;;5087210;28;20114;-62
2022/02/19 04:55:54;;;;;;;12.02;2.58;;;;;;;;;;5102110;28;20040;-62
2022/02/19 04:58:20;;;;;;;8.30;2.50;;;;;;;;;;5085514;28;20075;-62
2022/02/19 05:00:47;;;;;;;9.68;1.70;;;;;;;;;;5104504;28;20039;-62
2022/02/19 05:03:13;;;;;;;6.63;1.70;;;;;;;;;;5090389;28;20045;-61
2022/02/19 05:05:39;;;;;;;6.57;1.13;;;;;;;;;;5084201;28;20045;-62
2022/02/19 05:08:06;;;;;;;10.25;1.75;;;;;;;;;;5082104;28;20072;-62
2022/02/19 05:10:32;;;;;;;10.40;1.98;;;;;;;;;;5103528;28;20127;-62
2022/02/19 05:12:58;;;;;;;8.73;1.83;;;;;;;;;;5104133;28;20074;-62
2022/02/19 05:15:27;;;;;;;17.23;2.20;;;;;;;;;;5085216;28;20045;-62
2022/02/19 05:17:58;;;;;;;18.63;2.53;;;;;;;;;;5101677;28;20408;-62
2022/02/19 05:20:24;;;;;;;12.15;3.28;;;;;;;;;;5085475;28;20048;-62
2022/02/19 05:22:51;;;;;;;17.20;4.78;;;;;;;;;;5083200;28;20063;-62
2022/02/19 05:25:17;;;;;;;13.85;3.38;;;;;;;;;;5101601;28;20040;-62
2022/02/19 05:27:44;;;;;;;17.98;3.53;;;;;;;;;;5102114;28;20048;-62
2022/02/19 05:30:11;;;;;;;21.65;3.63;;;;;;;;;;5101295;28;20055;-62
2022/02/19 05:32:37;;;;;;;14.32;2.58;;;;;;;;;;5095500;28;20107;-62
2022/02/19 05:35:04;;;;;;;15.43;3.50;;;;;;;;;;5085871;28;20048;-62
2022/02/19 05:37:31;;;;;;;22.42;2.90;;;;;;;;;;5092859;28;20051;-62
2022/02/19 05:39:58;;;;;;;13.30;2.47;;;;;;;;;;5093905;28;20039;-62
2022/02/19 05:42:24;;;;;;;12.70;2.60;;;;;;;;;;5085600;28;20103;-61
2022/02/19 05:44:50;;;;;;;16.33;3.20;;;;;;;;;;5100146;28;20048;-62
2022/02/19 05:47:20;;;;;;;18.67;3.40;;;;;;;;;;5092057;28;20075;-62
2022/02/19 05:49:46;;;;;;;17.80;4.00;;;;;;;;;;5096238;28;20143;-62
2022/02/19 05:52:13;;;;;;;21.05;3.53;;;;;;;;;;5085459;28;20065;-62
2022/02/19 05:54:39;;;;;;;22.58;4.75;;;;;;;;;;5094414;28;20040;-62
2022/02/19 05:57:05;;;;;;;13.13;3.20;;;;;;;;;;5102017;28;20078;-62
2022/02/19 05:59:31;;;;;;;21.80;3.05;;;;;;;;;;5092444;28;20108;-62
2022/02/19 06:01:57;;;;;;;14.55;3.80;;;;;;;;;;5082366;28;20063;-62
2022/02/19 06:04:23;;;;;;;23.10;4.05;;;;;;;;;;5091233;28;20099;-62
2022/02/19 06:06:50;;;;;;;19.98;3.88;;;;;;;;;;5101247;28;20131;-61
2022/02/19 06:09:16;;;;;;;18.25;4.18;;;;;;;;;;5097065;28;20133;-62
2022/02/19 06:11:45;;;;;;;21.00;3.78;;;;;;;;;;5093707;28;20044;-62
2022/02/19 06:14:11;;;;;;;27.92;4.70;;;;;;;;;;5081402;28;20154;-62
2022/02/19 06:16:37;;;;;;;23.90;3.60;;;;;;;;;;5094649;28;20096;-62
2022/02/19 06:19:04;;;;;;;21.70;3.60;;;;;;;;;;5088587;28;20099;-62
2022/02/19 06:21:30;;;;;;;18.73;3.90;;;;;;;;;;5106626;28;20056;-62
2022/02/19 06:23:56;;;;;;;23.52;3.53;;;;;;;;;;5105538;28;20122;-62
2022/02/19 06:26:22;;;;;;;19.80;3.85;;;;;;;;;;5103938;28;20036;-62
2022/02/19 06:28:48;;;;;;;29.85;5.25;;;;;;;;;;5105625;28;20063;-62
2022/02/19 06:31:14;;;;;;;18.45;3.33;;;;;;;;;;5085765;28;20123;-62
2022/02/19 06:33:40;;;;;;;24.10;4.57;;;;;;;;;;5086372;28;20165;-62
2022/02/19 06:36:07;;;;;;;33.88;4.88;;;;;;;;;;5096942;28;20390;-62
2022/02/19 06:38:39;;;;;;;24.88;5.03;;;;;;;;;;5086365;28;20052;-62
2022/02/19 06:41:06;;;;;;;27.15;4.00;;;;;;;;;;5103438;28;20076;-62
2022/02/19 06:43:32;;;;;;;32.05;4.80;;;;;;;;;;5094058;28;20052;-62
2022/02/19 06:45:58;;;;;;;18.60;3.90;;;;;;;;;;5092851;28;20453;-62
2022/02/19 06:48:24;;;;;;;13.52;3.67;;;;;;;;;;5088104;28;20056;-61
2022/02/19 06:50:50;;;;;;;25.20;4.45;;;;;;;;;;5086618;28;20052;-63
2022/02/19 06:53:16;;;;;;;16.13;4.85;;;;;;;;;;5081231;28;20049;-62
2022/02/19 06:55:43;;;;;;;14.90;3.42;;;;;;;;;;5080066;28;20056;-63
2022/02/19 06:58:09;;;;;;;18.77;3.67;;;;;;;;;;5070926;28;20135;-63
2022/02/19 07:00:35;;;;;;;25.92;4.80;;;;;;;;;;5069610;28;20496;-63
2022/02/19 07:03:01;;;;;;;20.70;4.15;;;;;;;;;;5084246;28;20105;-63
2022/02/19 07:05:27;;;;;;;23.13;4.40;;;;;;;;;;5072983;28;20111;-63
2022/02/19 07:07:53;;;;;;;27.23;4.03;;;;;;;;;;5098831;28;20060;-63
2022/02/19 07:10:20;;;;;;;29.55;4.22;;;;;;;;;;5067203;28;20092;-63
2022/02/19 07:12:46;;;;;;;19.17;3.20;;;;;;;;;;5084114;28;20551;-63
2022/02/19 07:15:12;;;;;;;18.67;4.00;;;;;;;;;;5083375;28;20132;-64
2022/02/19 07:17:55;;;;;;;17.98;3.33;;;;;;;;;;5083859;28;20045;-63
2022/02/19 07:20:22;;;;;;;19.25;3.42;;;;;;;;;;5085464;28;20445;-63
2022/02/19 07:22:48;;;;;;;17.15;4.07;;;;;;;;;;5083597;28;20049;-63
2022/02/19 07:25:15;;;;;;;23.42;3.63;;;;;;;;;;5082530;28;20056;-63
2022/02/19 07:27:42;;;;;;;17.52;3.25;;;;;;;;;;5099540;28;20041;-64
2022/02/19 07:30:09;;;;;;;23.70;3.67;;;;;;;;;;5101652;28;20124;-63
2022/02/19 07:32:38;;;;;;;15.40;4.18;;;;;;;;;;5083766;28;20309;-63
2022/02/19 07:35:05;;;;;;;23.48;3.92;;;;;;;;;;5071488;28;20135;-63
2022/02/19 07:37:31;;;;;;;26.10;3.33;;;;;;;;;;5066065;28;20044;-63
2022/02/19 07:39:57;;;;;;;29.25;4.10;;;;;;;;;;5071433;28;20060;-63
2022/02/19 07:42:23;;;;;;;23.13;3.90;;;;;;;;;;5085321;28;20051;-63
2022/02/19 07:44:51;;;;;;;22.90;4.65;;;;;;;;;;5084798;28;20084;-63
2022/02/19 07:47:22;;;;;;;22.88;3.38;;;;;;;;;;5084523;28;20053;-63
2022/02/19 08:00:48;;;;;;;9.52;3.10;;;;;;;;;;5079173;28;20055;-63
2022/02/19 08:03:14;;;;;;;4.85;1.67;;;;;;;;;;5083611;28;20052;-64
2022/02/19 08:05:41;;;;;;;9.85;1.70;;;;;;;;;;5071701;28;20052;-63
2022/02/19 08:08:07;;;;;;;7.82;1.58;;;;;;;;;;5081732;28;20045;-63
2022/02/19 08:10:33;;;;;;;12.20;2.45;;;;;;;;;;5078447;28;20056;-64
2022/02/19 08:13:00;;;;;;;13.15;2.42;;;;;;;;;;5095152;28;20048;-63
2022/02/19 08:15:26;;;;;;;19.35;3.00;;;;;;;;;;5071225;28;20637;-64
2022/02/19 08:17:52;;;;;;;11.00;2.60;;;;;;;;;;5082361;28;20050;-63
2022/02/19 08:20:18;;;;;;;18.17;3.35;;;;;;;;;;5079450;28;20055;-63
2022/02/19 08:22:44;;;;;;;23.58;3.45;;;;;;;;;;5081770;28;20409;-63
2022/02/19 08:25:10;;;;;;;26.10;3.53;;;;;;;;;;5089037;28;20046;-63
2022/02/19 08:27:39;;;;;;;26.95;3.45;;;;;;;;;;5081152;28;20104;-63
2022/02/19 08:30:06;;;;;;;19.98;3.70;;;;;;;;;;5073113;28;20052;-63
2022/02/19 08:32:32;;;;;;;17.67;3.95;;;;;;;;;;5079492;28;20544;-65
2022/02/19 08:34:59;;;;;;;13.95;3.10;;;;;;;;;;5081026;28;20045;-63
2022/02/19 08:37:25;;;;;;;19.48;4.88;;;;;;;;;;5081195;28;20028;-63
2022/02/19 08:39:51;;;;;;;27.63;4.88;;;;;;;;;;5081432;28;20076;-64
2022/02/19 08:42:18;;;;;;;15.18;3.25;;;;;;;;;;5065684;28;20319;-63
2022/02/19 08:44:44;;;;;;;8.68;2.13;;;;;;;;;;5078474;28;20048;-63
2022/02/19 08:47:10;;;;;;;12.18;2.90;;;;;;;;;;5064465;28;20100;-62
2022/02/19 08:49:37;;;;;;;11.40;2.17;;;;;;;;;;5070757;28;20139;-63
2022/02/19 08:52:03;;;;;;;15.05;2.90;;;;;;;;;;5083515;28;20112;-63
2022/02/19 08:54:29;;;;;;;8.65;1.83;;;;;;;;;;5066762;28;20451;-63
2022/02/19 08:56:55;;;;;;;17.48;2.85;;;;;;;;;;5064530;28;20041;-63
2022/02/19 08:59:22;;;;;;;14.20;2.47;;;;;;;;;;5070697;28;20051;-62
2022/02/19 09:01:48;;;;;;;21.30;2.75;;;;;;;;;;5082783;28;20041;-64
2022/02/19 09:04:14;;;;;;;20.77;2.60;;;;;;;;;;5081983;28;20340;-64
2022/02/19 09:06:41;;;;;;;13.38;2.13;;;;;;;;;;5081587;28;20049;-64
2022/02/19 09:09:08;;;;;;;17.55;2.78;;;;;;;;;;5069634;28;20044;-63
2022/02/19 09:11:35;;;;;;;12.65;2.97;;;;;;;;;;5073031;28;20052;-63
2022/02/19 09:14:02;;;;;;;21.80;3.63;;;;;;;;;;5076605;28;20054;-63
2022/02/19 09:16:29;;;;;;;26.63;3.28;;;;;;;;;;5080293;28;20036;-62
2022/02/19 09:18:58;;;;;;;22.88;3.67;;;;;;;;;;5069364;28;20127;-61
2022/02/19 09:21:25;;;;;;;31.67;4.45;;;;;;;;;;5077838;28;20119;-62
2022/02/19 09:23:51;;;;;;;19.42;4.93;;;;;;;;;;5080445;28;21587;-63
2022/02/19 09:26:18;;;;;;;26.45;4.78;;;;;;;;;;5066869;28;20045;-61
2022/02/19 09:28:44;;;;;;;17.27;2.97;;;;;;;;;;5077550;28;20221;-63
2022/02/19 09:31:10;;;;;;;21.88;4.53;;;;;;;;;;5073903;28;20041;-63
2022/02/19 09:33:36;;;;;;;14.55;2.85;;;;;;;;;;5066466;28;20053;-63
2022/02/19 09:36:02;;;;;;;17.88;3.40;;;;;;;;;;5070405;28;20043;-64
2022/02/19 09:38:29;;;;;;;16.55;3.13;;;;;;;;;;5078911;28;20037;-63
2022/02/19 09:40:57;;;;;;;20.85;3.58;;;;;;;;;;5100784;28;20059;-63
2022/02/19 09:43:24;;;;;;;23.70;3.08;;;;;;;;;;5104112;28;20107;-63
2022/02/19 09:45:51;;;;;;;14.95;2.95;;;;;;;;;;5101042;28;20422;-63
2022/02/19 09:48:18;;;;;;;18.42;2.95;;;;;;;;;;5083940;28;20132;-64
2022/02/19 09:50:45;;;;;;;17.17;3.17;;;;;;;;;;5087100;28;20087;-63
2022/02/19 09:53:12;;;;;;;10.70;2.78;;;;;;;;;;5087116;28;20045;-63
2022/02/19 09:55:38;;;;;;;12.77;3.25;;;;;;;;;;5103663;28;20132;-63
2022/02/19 09:58:05;;;;;;;15.40;3.42;;;;;;;;;;5103301;28;20122;-64
2022/02/19 10:00:39;;;;;;;20.77;4.78;;;;;;;;;;5087071;28;20055;-63
2022/02/19 10:03:11;;;;;;;15.55;3.03;;;;;;;;;;5085908;28;20349;-63
2022/02/19 10:05:37;;;;;;;24.60;3.03;;;;;;;;;;5087243;28;20206;-63
2022/02/19 10:08:06;;;;;;;20.55;3.97;;;;;;;;;;5088881;28;20423;-63
2022/02/19 10:10:34;;;;;;;21.38;4.10;;;;;;;;;;5107634;28;20052;-63
2022/02/19 10:13:00;;;;;;;19.92;3.50;;;;;;;;;;5105744;28;20082;-63
2022/02/19 10:15:44;;;;;;;18.70;2.80;;;;;;;;;;5106176;28;20567;-63
2022/02/19 10:18:30;;;;;;;14.32;3.10;;;;;;;;;;5103484;28;20079;-63
2022/02/19 10:21:10;;;;;;;17.80;3.55;;;;;;;;;;5086367;28;20044;-64
2022/02/19 10:23:39;;;;;;;16.55;2.55;;;;;;;;;;5085870;28;20044;-63
2022/02/19 10:26:05;;;;;;;13.68;3.08;;;;;;;;;;5086768;28;20052;-64
2022/02/19 10:28:32;;;;;;;18.33;3.72;;;;;;;;;;5091377;28;20048;-63
2022/02/19 10:31:18;;;;;;;20.38;3.78;;;;;;;;;;5105814;28;20089;-63
2022/02/19 10:33:44;;;;;;;20.67;4.05;;;;;;;;;;5106682;28;20059;-64
2022/02/19 10:36:20;;;;;;;17.05;3.25;;;;;;;;;;5106369;28;20135;-64
2022/02/19 10:38:58;;;;;;;20.73;3.80;;;;;;;;;;5099146;28;20193;-64
2022/02/19 10:41:37;;;;;;;12.70;2.55;;;;;;;;;;5086763;28;20060;-64
2022/02/19 10:44:22;;;;;;;16.70;3.67;;;;;;;;;;5075151;28;20048;-63
2022/02/19 10:46:49;;;;;;;21.15;4.63;;;;;;;;;;5076409;28;20037;-63
2022/02/19 10:49:15;;;;;;;18.02;3.28;;;;;;;;;;5096716;28;20093;-64
2022/02/19 10:51:43;;;;;;;13.27;2.67;;;;;;;;;;5105964;28;20055;-63
2022/02/19 10:54:10;;;;;;;20.20;3.40;;;;;;;;;;5106575;28;20093;-63
2022/02/19 10:56:36;;;;;;;21.08;2.97;;;;;;;;;;5105250;28;20844;-63
2022/02/19 10:59:13;;;;;;;21.00;3.33;;;;;;;;;;5097059;28;20044;-63
2022/02/19 11:01:39;;;;;;;14.13;2.60;;;;;;;;;;5085093;28;20050;-63
2022/02/19 11:04:07;;;;;;;14.05;3.05;;;;;;;;;;5085890;28;20048;-64
2022/02/19 11:06:33;;;;;;;;;;;;;;;;;;5102590;28;20109;-63
2022/02/19 11:09:00;;;;;;;21.83;2.88;;;;;;;;;;5081850;28;19928;-63
2022/02/19 11:11:27;;;;;;;14.63;3.13;;;;;;;;;;5085828;28;20041;-63
2022/02/19 11:13:54;;;;;;;17.88;3.20;;;;;;;;;;5084919;28;20044;-63
2022/02/19 11:16:20;;;;;;;16.70;2.50;;;;;;;;;;5085708;28;20073;-64
2022/02/19 11:18:46;;;;;;;16.85;3.55;;;;;;;;;;5103980;28;20083;-63
2022/02/19 11:21:13;;;;;;;20.23;2.92;;;;;;;;;;5105073;28;20040;-64
2022/02/19 11:23:40;;;;;;;15.68;3.20;;;;;;;;;;5105783;28;20052;-63
2022/02/19 11:26:08;;;;;;;22.27;4.03;;;;;;;;;;5105737;28;20105;-64
2022/02/19 11:28:36;;;;;;;14.98;2.15;;;;;;;;;;5089124;28;20044;-63
2022/02/19 11:31:04;;;;;;;18.13;3.03;;;;;;;;;;5084486;28;20040;-63
2022/02/19 11:33:31;;;;;;;10.07;2.85;;;;;;;;;;5085283;28;20052;-63
2022/02/19 11:36:03;;;;;;;16.77;3.25;;;;;;;;;;5083564;28;20048;-63
2022/02/19 11:38:30;;;;;;;10.25;2.28;;;;;;;;;;5100434;28;20048;-63
2022/02/19 11:41:19;;;;;;;14.90;3.10;;;;;;;;;;5104276;28;20052;-64
2022/02/19 11:43:47;;;;;;;19.02;3.03;;;;;;;;;;5105936;28;20518;-63
2022/02/19 11:46:16;;;;;;;14.88;2.45;;;;;;;;;;5091392;28;20043;-64
2022/02/19 11:48:44;;;;;;;9.18;2.17;;;;;;;;;;5101223;28;20071;-63
2022/02/19 11:51:23;;;;;;;12.80;3.05;;;;;;;;;;5082871;28;20088;-63
2022/02/19 11:53:53;;;;;;;16.60;3.65;;;;;;;;;;5088528;28;20169;-63
2022/02/19 11:56:35;;;;;;;13.57;3.28;;;;;;;;;;5104022;28;20079;-64
2022/02/19 11:59:01;;;;;;;13.63;2.45;;;;;;;;;;5086858;28;20086;-64
2022/02/19 12:01:28;;;;;;;22.20;3.15;;;;;;;;;;5087676;28;20040;-64
2022/02/19 12:04:16;;;;;;;20.27;3.35;;;;;;;;;;5105240;28;20050;-64
2022/02/19 12:06:46;;;;;;;19.23;3.83;;;;;;;;;;5089569;28;20067;-63
2022/02/19 12:09:13;;;;;;;10.93;2.55;;;;;;;;;;5092761;28;20048;-64
2022/02/19 12:11:59;;;;;;;15.23;3.35;;;;;;;;;;5082446;28;20051;-64
2022/02/19 12:14:41;;;;;;;13.48;4.03;;;;;;;;;;5091686;28;20401;-64
2022/02/19 12:17:10;;;;;;;16.17;2.25;;;;;;;;;;5080895;28;20046;-63
2022/02/19 12:19:52;;;;;;;6.43;2.28;;;;;;;;;;5070125;28;20052;-64
2022/02/19 12:22:32;;;;;;;20.08;3.45;;;;;;;;;;5079447;28;20044;-64
2022/02/19 12:24:59;;;;;;;16.15;3.00;;;;;;;;;;5074768;28;20041;-64
2022/02/19 12:27:26;;;;;;;13.20;2.75;;;;;;;;;;5077706;28;20142;-62
2022/02/19 12:30:12;;;;;;;16.38;3.08;;;;;;;;;;5075450;28;20056;-62
2022/02/19 12:32:43;;;;;;;9.23;2.83;;;;;;;;;;5077152;28;20100;-63
2022/02/19 12:35:10;;;;;;;13.82;3.03;;;;;;;;;;5103153;28;20043;-62
2022/02/19 12:37:36;;;;;;;13.77;2.80;;;;;;;;;;5099249;28;20055;-63
2022/02/19 12:40:03;;;;;;;10.60;3.20;;;;;;;;;;5085248;28;20040;-63
2022/02/19 12:42:30;;;;;;;5.32;1.42;;;;;;;;;;5084155;28;20052;-63
2022/02/19 12:45:00;;;;;;;10.30;1.92;;;;;;;;;;5099270;28;20051;-63
2022/02/19 12:47:26;;;;;;;12.35;3.17;;;;;;;;;;5071915;28;20045;-63
2022/02/19 12:49:53;;;;;;;16.40;2.40;;;;;;;;;;5088000;28;20061;-63
2022/02/19 12:52:21;;;;;;;14.50;2.30;;;;;;;;;;5102656;28;20078;-63
2022/02/19 12:54:47;;;;;;;14.90;2.50;;;;;;;;;;5083430;28;20047;-63
2022/02/19 12:57:19;;;;;;;9.15;1.85;;;;;;;;;;5071636;28;20108;-63
2022/02/19 12:59:46;;;;;;;11.38;1.95;;;;;;;;;;5067835;28;20037;-63
2022/02/19 13:02:12;;;;;;;9.03;2.53;;;;;;;;;;5085243;28;20055;-63
2022/02/19 13:04:39;;;;;;;8.75;1.85;;;;;;;;;;5085149;28;20103;-63
2022/02/19 13:07:32;;;;;;;14.15;3.03;;;;;;;;;;5082418;28;20045;-63
2022/02/19 13:09:59;;;;;;;12.70;2.35;;;;;;;;;;5068667;28;20049;-63
2022/02/19 13:12:35;;;;;;;11.03;2.40;;;;;;;;;;5066323;28;20366;-63
2022/02/19 13:15:03;;;;;;;11.65;2.13;;;;;;;;;;5063440;28;20295;-64
2022/02/19 13:17:32;;;;;;;;;;;;;;;;;;5069285;28;20029;-63
2022/02/19 13:20:06;;;;;;;7.63;2.35;;;;;;;;;;5072398;28;19921;-63
2022/02/19 13:22:32;;;;;;;17.85;2.53;;;;;;;;;;5063951;28;20070;-63
2022/02/19 13:24:58;;;;;;;12.90;2.00;;;;;;;;;;5068498;28;20040;-63
2022/02/19 13:27:29;;;;;;;16.27;2.83;;;;;;;;;;5085597;28;20110;-62
2022/02/19 13:29:56;;;;;;;10.38;1.98;;;;;;;;;;5070191;28;20059;-63
2022/02/19 13:32:23;;;;;;;12.57;2.33;;;;;;;;;;5066700;28;20526;-63
2022/02/19 13:34:50;;;;;;;9.85;2.58;;;;;;;;;;5071239;28;20045;-63
2022/02/19 13:37:16;;;;;;;7.88;2.08;;;;;;;;;;5074851;28;20060;-63
2022/02/19 13:39:43;;;;;;;10.55;2.58;;;;;;;;;;5067893;28;20037;-63
2022/02/19 13:42:10;;;;;;;10.70;2.85;;;;;;;;;;5065599;28;20462;-63
2022/02/19 13:44:48;;;;;;;17.20;2.22;;;;;;;;;;5066088;28;20049;-63
2022/02/19 13:47:14;;;;;;;9.35;2.60;;;;;;;;;;5065262;28;20052;-63
2022/02/19 13:49:51;;;;;;;10.07;1.70;;;;;;;;;;5078165;28;20063;-62
2022/02/19 13:52:37;;;;;;;10.45;1.90;;;;;;;;;;5071759;28;20048;-62
2022/02/19 13:55:14;;;;;;;10.20;2.75;;;;;;;;;;5070187;28;20045;-63
2022/02/19 13:57:48;;;;;;;10.93;2.65;;;;;;;;;;5070742;28;20089;-62
2022/02/19 14:00:15;;;;;;;7.80;2.40;;;;;;;;;;5071082;28;20049;-63
2022/02/19 14:02:42;;;;;;;9.77;2.22;;;;;;;;;;5075993;28;20104;-63
2022/02/19 14:05:09;;;;;;;8.00;1.70;;;;;;;;;;5073493;28;20041;-62
2022/02/19 14:07:51;;;;;;;9.77;2.08;;;;;;;;;;5069205;28;20049;-62
2022/02/19 14:10:17;;;;;;;11.48;2.83;;;;;;;;;;5116315;27;20048;-62
2022/02/19 14:12:43;;;;;;;7.88;2.25;;;;;;;;;;5087078;28;20150;-63
2022/02/19 14:15:14;;;;;;;13.07;2.67;;;;;;;;;;5084340;28;20116;-63
2022/02/19 14:17:44;;;;;;;12.10;2.10;;;;;;;;;;5085281;28;20446;-62
2022/02/19 14:20:12;;;;;;;14.07;2.90;;;;;;;;;;5072016;28;20135;-63
2022/02/19 14:22:41;;;;;;;12.80;2.90;;;;;;;;;;5074607;28;20037;-63
2022/02/19 14:25:12;;;;;;;13.43;3.33;;;;;;;;;;5073369;28;20185;-62
2022/02/19 14:27:48;;;;;;;14.80;2.78;;;;;;;;;;5087575;28;20037;-64
2022/02/19 14:30:14;;;;;;;12.50;2.45;;;;;;;;;;5082817;28;20048;-62
2022/02/19 14:32:40;;;;;;;11.20;2.60;;;;;;;;;;5086881;28;20060;-62
2022/02/19 14:35:07;;;;;;;17.67;3.13;;;;;;;;;;5082152;28;20047;-63
2022/02/19 14:37:33;;;;;;;11.38;2.67;;;;;;;;;;5066092;28;20104;-63
2022/02/19 14:39:59;;;;;;;12.63;2.45;;;;;;;;;;5083704;28;20496;-64
2022/02/19 14:42:25;;;;;;;13.48;3.08;;;;;;;;;;5081394;28;20131;-63
2022/02/19 14:44:51;;;;;;;17.45;2.95;;;;;;;;;;5086536;28;20067;-61
2022/02/19 14:47:17;;;;;;;11.18;2.22;;;;;;;;;;5082710;28;20591;-63